地図

経路データ

SID SEASON NUMBER BASIN SUBBASIN NAME ISO_TIME NATURE LAT LON WMO_WIND WMO_PRES WMO_AGENCY TRACK_TYPE DIST2LAND LANDFALL IFLAG USA_AGENCY USA_ATCF_ID USA_LAT USA_LON USA_RECORD USA_STATUS USA_WIND USA_PRES USA_SSHS USA_R34_NE USA_R34_SE USA_R34_SW USA_R34_NW USA_R50_NE USA_R50_SE USA_R50_SW USA_R50_NW USA_R64_NE USA_R64_SE USA_R64_SW USA_R64_NW USA_POCI USA_ROCI USA_RMW USA_EYE TOKYO_LAT TOKYO_LON TOKYO_GRADE TOKYO_WIND TOKYO_PRES TOKYO_R50_DIR TOKYO_R50_LONG TOKYO_R50_SHORT TOKYO_R30_DIR TOKYO_R30_LONG TOKYO_R30_SHORT TOKYO_LAND CMA_LAT CMA_LON CMA_CAT CMA_WIND CMA_PRES HKO_LAT HKO_LON HKO_CAT HKO_WIND HKO_PRES NEWDELHI_LAT NEWDELHI_LON NEWDELHI_GRADE NEWDELHI_WIND NEWDELHI_PRES NEWDELHI_CI NEWDELHI_DP NEWDELHI_POCI REUNION_LAT REUNION_LON REUNION_TYPE REUNION_WIND REUNION_PRES REUNION_TNUM REUNION_CI REUNION_RMW REUNION_R34_NE REUNION_R34_SE REUNION_R34_SW REUNION_R34_NW REUNION_R50_NE REUNION_R50_SE REUNION_R50_SW REUNION_R50_NW REUNION_R64_NE REUNION_R64_SE REUNION_R64_SW REUNION_R64_NW BOM_LAT BOM_LON BOM_TYPE BOM_WIND BOM_PRES BOM_TNUM BOM_CI BOM_RMW BOM_R34_NE BOM_R34_SE BOM_R34_SW BOM_R34_NW BOM_R50_NE BOM_R50_SE BOM_R50_SW BOM_R50_NW BOM_R64_NE BOM_R64_SE BOM_R64_SW BOM_R64_NW BOM_ROCI BOM_POCI BOM_EYE BOM_POS_METHOD BOM_PRES_METHOD NADI_LAT NADI_LON NADI_CAT NADI_WIND NADI_PRES WELLINGTON_LAT WELLINGTON_LON WELLINGTON_WIND WELLINGTON_PRES DS824_LAT DS824_LON DS824_STAGE DS824_WIND DS824_PRES TD9636_LAT TD9636_LON TD9636_STAGE TD9636_WIND TD9636_PRES TD9635_LAT TD9635_LON TD9635_WIND TD9635_PRES TD9635_ROCI NEUMANN_LAT NEUMANN_LON NEUMANN_CLASS NEUMANN_WIND NEUMANN_PRES MLC_LAT MLC_LON MLC_CLASS MLC_WIND MLC_PRES USA_GUST BOM_GUST BOM_GUST_PER REUNION_GUST REUNION_GUST_PER USA_SEAHGT USA_SEARAD_NE USA_SEARAD_SE USA_SEARAD_SW USA_SEARAD_NW STORM_SPEED STORM_DIR
1959169N26274 1959 37 NA GM NOT_NAMED 1959-06-18 00:00:00 TS 26.3000 -86.3000 35 hurdat_atl main 380 239 O_____________ hurdat_atl AL031959 26.3000 -86.3000 TS 35 0 28 56
1959169N26274 1959 37 NA GM NOT_NAMED 1959-06-18 03:00:00 TS 27.0885 -85.0008 main 225 91 P_____________ AL031959 27.0885 -85.0008 TS 37 0 27 59
1959169N26274 1959 37 NA GM NOT_NAMED 1959-06-18 06:00:00 TS 27.7000 -83.7000 40 1002 hurdat_atl main 81 0 O_____________ hurdat_atl AL031959 27.7000 -83.7000 TS 40 1002 0 26 65
1959169N26274 1959 37 NA GM NOT_NAMED 1959-06-18 08:00:00 TS 28.0000 -82.8000 40 1002 hurdat_atl main 0 0 O_____________ hurdat_atl AL031959 28.0000 -82.8000 L TS 40 1002 0 27 68
1959169N26274 1959 37 NA NA NOT_NAMED 1959-06-18 09:00:00 TS 28.2119 -82.2676 main 0 0 P_____________ AL031959 28.2119 -82.2676 TS 40 0 34 64
1959169N26274 1959 37 NA NA NOT_NAMED 1959-06-18 12:00:00 TS 29.0000 -80.5000 40 hurdat_atl main 31 31 O_____________ hurdat_atl AL031959 29.0000 -80.5000 TS 40 0 32 63
1959169N26274 1959 37 NA NA NOT_NAMED 1959-06-18 15:00:00 TS 29.6911 -78.9900 main 195 195 P_____________ AL031959 29.6911 -78.9900 TS 42 0 30 62
1959169N26274 1959 37 NA NA NOT_NAMED 1959-06-18 18:00:00 TS 30.4000 -77.5000 45 hurdat_atl main 340 340 O_____________ hurdat_atl AL031959 30.4000 -77.5000 TS 45 0 31 63
1959169N26274 1959 37 NA NA NOT_NAMED 1959-06-18 21:00:00 TS 31.1153 -75.8179 main 374 370 P_____________ AL031959 31.1153 -75.8179 TS 50 0 34 62
1959169N26274 1959 37 NA NA NOT_NAMED 1959-06-19 00:00:00 TS 32.0000 -74.0000 55 hurdat_atl main 379 376 O_____________ hurdat_atl AL031959 32.0000 -74.0000 TS 55 0 37 58
1959169N26274 1959 37 NA NA NOT_NAMED 1959-06-19 03:00:00 TS 33.0732 -72.0987 main 431 431 P_____________ AL031959 33.0732 -72.0987 TS 60 0 42 53
1959169N26274 1959 37 NA NA NOT_NAMED 1959-06-19 06:00:00 TS 34.5000 -70.0000 65 hurdat_atl main 519 519 O_____________ hurdat_atl AL031959 34.5000 -70.0000 HU 65 1 51 49
1959169N26274 1959 37 NA NA NOT_NAMED 1959-06-19 09:00:00 TS 36.4363 -67.4096 main 630 562 P_____________ AL031959 36.4363 -67.4096 HU 70 1 56 46
1959169N26274 1959 37 NA NA NOT_NAMED 1959-06-19 12:00:00 TS 38.4000 -65.0000 75 974 hurdat_atl main 560 437 O_____________ hurdat_atl AL031959 38.4000 -65.0000 HU 75 974 1 46 42
1959169N26274 1959 37 NA NA NOT_NAMED 1959-06-19 15:00:00 TS 39.8962 -63.4712 main 427 346 P_____________ AL031959 39.8962 -63.4712 HU 75 1 34 34
1959169N26274 1959 37 NA NA NOT_NAMED 1959-06-19 18:00:00 ET 41.2000 -62.5000 75 hurdat_atl main 343 265 O_____________ hurdat_atl AL031959 41.2000 -62.5000 EX 75 -4 30 30
1959169N26274 1959 37 NA NA NOT_NAMED 1959-06-19 21:00:00 ET 42.5237 -61.4904 main 265 171 P_____________ AL031959 42.5237 -61.4904 EX 72 -4 27 24
1959169N26274 1959 37 NA NA NOT_NAMED 1959-06-20 00:00:00 ET 43.7000 -61.0000 70 hurdat_atl main 161 50 O_____________ hurdat_atl AL031959 43.7000 -61.0000 EX 70 -4 22 4
1959169N26274 1959 37 NA NA NOT_NAMED 1959-06-20 03:00:00 ET 44.7499 -61.3016 main 50 0 P_____________ AL031959 44.7499 -61.3016 EX 65 -4 19 338
1959169N26274 1959 37 NA NA NOT_NAMED 1959-06-20 06:00:00 ET 45.5000 -62.0000 60 hurdat_atl main 0 0 O_____________ hurdat_atl AL031959 45.5000 -62.0000 EX 60 -4 15 323
1959169N26274 1959 37 NA NA NOT_NAMED 1959-06-20 09:00:00 ET 45.9153 -62.5766 main 11 0 P_____________ AL031959 45.9153 -62.5766 EX 55 -4 9 306
1959169N26274 1959 37 NA NA NOT_NAMED 1959-06-20 12:00:00 ET 46.0000 -63.0000 50 hurdat_atl main 7 7 O_____________ hurdat_atl AL031959 46.0000 -63.0000 EX 50 -4 4 261
1959169N26274 1959 37 NA NA NOT_NAMED 1959-06-20 15:00:00 ET 45.8517 -63.1511 main 19 0 P_____________ AL031959 45.8517 -63.1511 EX 50 -4 4 0
1959169N26274 1959 37 NA NA NOT_NAMED 1959-06-20 18:00:00 ET 45.6000 -63.0000 50 hurdat_atl main 0 0 O_____________ hurdat_atl AL031959 45.6000 -63.0000 EX 50 -4 5 151
1959169N26274 1959 37 NA NA NOT_NAMED 1959-06-20 21:00:00 ET 45.3968 -62.7936 main 0 0 P_____________ AL031959 45.3968 -62.7936 EX 47 -4 7 106
1959169N26274 1959 37 NA NA NOT_NAMED 1959-06-21 00:00:00 ET 45.4000 -62.0000 45 hurdat_atl main 0 0 O_____________ hurdat_atl AL031959 45.4000 -62.0000 EX 45 -4 19 79
1959169N26274 1959 37 NA NA NOT_NAMED 1959-06-21 03:00:00 ET 45.7673 -60.1934 main 0 0 P_____________ AL031959 45.7673 -60.1934 EX 45 -4 29 72
1959169N26274 1959 37 NA NA NOT_NAMED 1959-06-21 06:00:00 ET 46.3000 -58.0000 45 hurdat_atl main 138 31 O_____________ hurdat_atl AL031959 46.3000 -58.0000 EX 45 -4 30 70
1959169N26274 1959 37 NA NA NOT_NAMED 1959-06-21 09:00:00 ET 46.7971 -56.1736 main 26 0 P_____________ AL031959 46.7971 -56.1736 EX 42 -4 26 67
1959169N26274 1959 37 NA NA NOT_NAMED 1959-06-21 12:00:00 ET 47.3000 -54.5000 40 hurdat_atl main 11 0 O_____________ hurdat_atl AL031959 47.3000 -54.5000 EX 40 -4 24 66
1959169N26274 1959 37 NA NA NOT_NAMED 1959-06-21 15:00:00 ET 47.7777 -52.9237 main 13 11 P_____________ AL031959 47.7777 -52.9237 EX 37 -4 22 66
1959169N26274 1959 37 NA NA NOT_NAMED 1959-06-21 18:00:00 ET 48.2000 -51.5000 35 hurdat_atl main 96 96 O_____________ hurdat_atl AL031959 48.2000 -51.5000 EX 35 -4 20 67
1959169N26274 1959 37 NA NA NOT_NAMED 1959-06-21 21:00:00 ET 48.5508 -50.1737 main 199 199 P_____________ AL031959 48.5508 -50.1737 EX 35 -4 18 70
1959169N26274 1959 37 NA NA NOT_NAMED 1959-06-22 00:00:00 ET 48.8000 -49.0000 35 hurdat_atl main 289 289 O_____________ hurdat_atl AL031959 48.8000 -49.0000 EX 35 -4 15 75
1959169N26274 1959 37 NA NA NOT_NAMED 1959-06-22 03:00:00 ET 48.9430 -47.9607 main 363 363 P_____________ AL031959 48.9430 -47.9607 EX 32 -4 13 81
1959169N26274 1959 37 NA NA NOT_NAMED 1959-06-22 06:00:00 ET 49.0000 -47.0000 30 hurdat_atl main 436 436 O_____________ hurdat_atl AL031959 49.0000 -47.0000 EX 30 -4 13 87
1959169N26274 1959 37 NA NA NOT_NAMED 1959-06-22 09:00:00 ET 49.0123 -46.0129 main 507 507 P_____________ AL031959 49.0123 -46.0129 EX 30 -4 13 90
1959169N26274 1959 37 NA NA NOT_NAMED 1959-06-22 12:00:00 ET 49.0000 -45.0000 30 hurdat_atl main 579 O_____________ hurdat_atl AL031959 49.0000 -45.0000 EX 30 -4 13 91

IBTrACS Databaseについて

本データベースは、米国NOAAが公開する1842年以降の世界の熱帯低気圧のベストトラックデータアーカイブInternational Best Track Archive for Climate Stewardship (IBTrACS)を、ウェブで閲覧しやすい形式に変換したものです。

最終更新日:2021-11-26